createdAt,value
2018-04-11T00:01:43.195Z,24.93
2018-04-11T00:04:10.997Z,24.10
2018-04-11T00:06:38.548Z,24.70
2018-04-11T00:09:06.122Z,25.13
2018-04-11T00:11:33.638Z,24.00
2018-04-11T00:14:01.166Z,25.17
2018-04-11T00:16:28.675Z,25.40
2018-04-11T00:18:56.228Z,25.00
2018-04-11T00:21:23.761Z,23.97
2018-04-11T00:23:51.281Z,24.27
2018-04-11T00:26:18.854Z,25.03
2018-04-11T00:28:46.372Z,24.53
2018-04-11T00:31:13.922Z,24.93
2018-04-11T00:33:41.440Z,25.50
2018-04-11T00:36:09.289Z,25.30
2018-04-11T00:38:36.813Z,25.00
2018-04-11T00:41:04.391Z,24.70
2018-04-11T00:43:31.931Z,26.90
2018-04-11T00:45:59.493Z,26.70
2018-04-11T00:48:27.025Z,26.00
2018-04-11T00:50:54.570Z,25.90
2018-04-11T00:53:26.729Z,27.43
2018-04-11T00:55:54.278Z,28.13
2018-04-11T00:58:21.822Z,26.93
2018-04-11T01:00:49.384Z,27.40
2018-04-11T01:03:16.931Z,27.77
2018-04-11T01:05:44.851Z,27.17
2018-04-11T01:08:12.394Z,25.43
2018-04-11T01:10:39.950Z,26.90
2018-04-11T01:13:07.520Z,27.17
2018-04-11T01:15:35.058Z,26.50
2018-04-11T01:18:02.562Z,27.30
2018-04-11T01:20:30.120Z,26.87
2018-04-11T01:22:57.665Z,26.10
2018-04-11T01:25:25.240Z,28.20
2018-04-11T01:27:52.786Z,26.50
2018-04-11T01:30:20.306Z,27.80
2018-04-11T01:32:47.945Z,26.13
2018-04-11T01:35:15.466Z,25.90
2018-04-11T01:37:43.056Z,28.70
2018-04-11T01:40:10.616Z,26.93
2018-04-11T01:42:38.143Z,25.60
2018-04-11T01:45:05.699Z,25.73
2018-04-11T01:47:33.226Z,26.70
2018-04-11T01:50:00.732Z,26.90
2018-04-11T01:52:28.314Z,27.70
2018-04-11T01:54:55.905Z,25.13
2018-04-11T01:57:23.614Z,27.73
2018-04-11T01:59:51.129Z,28.00
2018-04-11T02:02:18.664Z,27.30
2018-04-11T02:04:46.201Z,26.67
2018-04-11T02:07:14.052Z,28.87
2018-04-11T02:09:41.656Z,28.37
2018-04-11T02:12:09.153Z,28.03
2018-04-11T02:14:36.678Z,26.93
2018-04-11T02:17:04.196Z,28.03
2018-04-11T02:19:31.714Z,27.70
2018-04-11T02:21:59.269Z,31.50
2018-04-11T02:24:26.778Z,29.70
2018-04-11T02:26:54.391Z,27.93
2018-04-11T02:29:21.933Z,28.27
2018-04-11T02:31:49.448Z,28.67
2018-04-11T02:34:16.998Z,28.50
2018-04-11T02:36:44.519Z,28.50
2018-04-11T02:39:12.070Z,30.63
2018-04-11T02:41:39.634Z,27.67
2018-04-11T02:44:07.147Z,27.30
2018-04-11T02:46:34.731Z,28.10
2018-04-11T02:49:02.320Z,27.90
2018-04-11T02:51:29.845Z,27.93
2018-04-11T02:53:57.374Z,28.20
2018-04-11T02:56:24.887Z,29.03
2018-04-11T02:58:52.463Z,29.17
2018-04-11T03:01:19.985Z,31.97
2018-04-11T03:03:47.839Z,31.53
2018-04-11T03:06:15.465Z,31.00
2018-04-11T03:08:42.991Z,31.60
2018-04-11T03:11:10.533Z,31.50
2018-04-11T03:13:38.071Z,31.10
2018-04-11T03:16:05.597Z,31.97
2018-04-11T03:18:33.125Z,31.23
2018-04-11T03:21:00.810Z,30.87
2018-04-11T03:23:28.396Z,31.70
2018-04-11T03:25:55.924Z,31.27
2018-04-11T03:28:23.452Z,31.67
2018-04-11T03:30:50.976Z,32.30
2018-04-11T03:33:18.497Z,32.37
2018-04-11T03:35:46.065Z,34.77
2018-04-11T03:38:13.583Z,32.70
2018-04-11T03:40:41.112Z,33.47
2018-04-11T03:43:08.636Z,30.70
2018-04-11T03:45:36.160Z,32.07
2018-04-11T03:48:03.705Z,31.90
2018-04-11T03:50:31.531Z,30.77
2018-04-11T03:52:59.119Z,32.60
2018-04-11T03:55:26.649Z,29.30
2018-04-11T03:57:54.201Z,30.60
2018-04-11T04:00:21.832Z,32.40
2018-04-11T04:02:49.370Z,32.47
2018-04-11T04:05:16.904Z,31.60
2018-04-11T04:07:44.499Z,31.67
2018-04-11T04:10:12.043Z,31.00
2018-04-11T04:12:39.841Z,31.70
2018-04-11T04:15:19.072Z,30.13
2018-04-11T04:17:58.651Z,30.77
2018-04-11T04:20:37.101Z,32.30
2018-04-11T04:23:04.930Z,32.23
2018-04-11T04:25:32.488Z,32.90
2018-04-11T04:28:00.033Z,31.00
2018-04-11T04:30:27.621Z,31.00
2018-04-11T04:32:55.265Z,31.97
2018-04-11T04:35:23.112Z,32.70
2018-04-11T04:37:50.617Z,31.10
2018-04-11T04:40:18.146Z,31.27
2018-04-11T04:42:45.725Z,30.43
2018-04-11T04:45:13.248Z,29.80
2018-04-11T04:47:40.802Z,33.60
2018-04-11T04:50:08.600Z,30.47
2018-04-11T04:52:36.149Z,31.97
2018-04-11T04:55:03.813Z,31.43
2018-04-11T04:57:31.367Z,32.60
2018-04-11T04:59:58.983Z,32.03
2018-04-11T05:02:26.511Z,30.07
2018-04-11T05:04:54.073Z,31.50
2018-04-11T05:07:21.634Z,35.17
2018-04-11T05:09:49.163Z,31.23
2018-04-11T05:12:16.721Z,31.37
2018-04-11T05:14:44.439Z,30.70
2018-04-11T05:17:11.942Z,31.53
2018-04-11T05:19:39.520Z,29.80
2018-04-11T05:22:07.041Z,30.57
2018-04-11T05:24:34.606Z,31.30
2018-04-11T05:27:02.403Z,30.07
2018-04-11T05:29:29.926Z,30.40
2018-04-11T05:31:57.539Z,31.43
2018-04-11T05:34:25.144Z,29.03
2018-04-11T05:36:52.974Z,29.63
2018-04-11T05:39:20.497Z,30.00
2018-04-11T05:41:48.105Z,30.83
2018-04-11T05:44:15.662Z,30.90
2018-04-11T05:46:43.201Z,31.27
2018-04-11T05:49:10.756Z,33.13
2018-04-11T05:51:38.321Z,31.60
2018-04-11T05:54:05.877Z,30.90
2018-04-11T05:56:33.443Z,32.73
2018-04-11T05:59:00.945Z,33.33
2018-04-11T06:01:28.504Z,32.70
2018-04-11T06:03:56.019Z,33.50
2018-04-11T06:06:23.541Z,31.93
2018-04-11T06:08:51.080Z,31.07
2018-04-11T06:11:18.903Z,30.83
2018-04-11T06:13:46.459Z,31.70
2018-04-11T06:16:14.044Z,30.00
2018-04-11T06:18:41.582Z,29.90
2018-04-11T06:21:09.899Z,29.27
2018-04-11T06:23:37.415Z,30.47
2018-04-11T06:26:04.975Z,30.77
2018-04-11T06:28:32.517Z,29.27
2018-04-11T06:31:00.377Z,31.67
2018-04-11T06:33:29.164Z,31.67
2018-04-11T06:35:56.798Z,32.90
2018-04-11T06:38:24.543Z,30.73
2018-04-11T06:40:52.916Z,30.40
2018-04-11T06:43:21.011Z,38.23
2018-04-11T06:45:48.779Z,35.30
2018-04-11T06:48:16.631Z,29.77
2018-04-11T06:50:44.395Z,31.50
2018-04-11T06:53:12.173Z,28.90
2018-04-11T06:55:39.805Z,30.80
2018-04-11T06:58:07.384Z,30.67
2018-04-11T07:00:35.243Z,30.83
2018-04-11T07:03:03.118Z,30.00
2018-04-11T07:05:30.974Z,29.20
2018-04-11T07:07:58.765Z,30.17
2018-04-11T07:10:26.298Z,29.33
2018-04-11T07:12:53.813Z,31.13
2018-04-11T07:15:21.356Z,31.30
2018-04-11T07:17:48.872Z,29.90
2018-04-11T07:20:16.393Z,29.20
2018-04-11T07:22:43.932Z,30.07
2018-04-11T07:25:11.442Z,29.17
2018-04-11T07:27:38.990Z,28.87
2018-04-11T07:30:06.553Z,28.00
2018-04-11T07:32:34.080Z,28.33
2018-04-11T07:35:01.620Z,28.40
2018-04-11T07:37:29.464Z,26.80
2018-04-11T07:39:58.478Z,26.73
2018-04-11T07:42:26.010Z,26.27
2018-04-11T07:44:53.597Z,26.60
2018-04-11T07:47:21.191Z,27.20
2018-04-11T07:49:48.715Z,29.67
2018-04-11T07:52:16.613Z,27.97
2018-04-11T07:54:44.555Z,25.80
2018-04-11T07:57:12.116Z,26.77
2018-04-11T07:59:41.888Z,25.43
2018-04-11T08:02:09.426Z,25.90
2018-04-11T08:04:37.353Z,26.60
2018-04-11T08:07:04.887Z,29.60
2018-04-11T08:09:32.443Z,25.43
2018-04-11T08:12:00.036Z,24.23
2018-04-11T08:14:27.629Z,23.37
2018-04-11T08:16:55.911Z,23.93
2018-04-11T08:19:23.454Z,24.27
2018-04-11T08:21:51.122Z,24.00
2018-04-11T08:24:18.754Z,25.97
2018-04-11T08:26:46.428Z,25.30
2018-04-11T08:29:13.973Z,25.87
2018-04-11T08:31:41.642Z,24.90
2018-04-11T08:34:09.196Z,25.37
2018-04-11T08:36:36.858Z,25.10
2018-04-11T08:39:04.737Z,26.00
2018-04-11T08:41:32.408Z,22.53
2018-04-11T08:44:00.224Z,26.00
2018-04-11T08:46:27.956Z,26.37
2018-04-11T08:48:55.582Z,25.13
2018-04-11T08:51:23.184Z,24.80
2018-04-11T08:53:50.775Z,23.93
2018-04-11T08:56:18.326Z,23.70
2018-04-11T08:58:45.850Z,23.80
2018-04-11T09:01:13.427Z,24.90
2018-04-11T09:03:40.949Z,23.60
2018-04-11T09:06:08.735Z,24.07
2018-04-11T09:08:36.297Z,24.00
2018-04-11T09:11:03.945Z,23.63
2018-04-11T09:13:31.606Z,22.83
2018-04-11T09:15:59.298Z,23.97
2018-04-11T09:18:26.870Z,24.07
2018-04-11T09:20:54.394Z,24.30
2018-04-11T09:23:22.253Z,24.50
2018-04-11T09:25:49.785Z,22.70
2018-04-11T09:28:17.373Z,26.30
2018-04-11T09:30:44.898Z,24.20
2018-04-11T09:33:12.494Z,24.77
2018-04-11T09:35:40.038Z,22.70
2018-04-11T09:38:07.587Z,24.00
2018-04-11T09:40:35.149Z,24.60
2018-04-11T09:43:02.785Z,22.50
2018-04-11T09:45:30.322Z,21.80
2018-04-11T09:47:57.896Z,22.10
2018-04-11T09:50:25.433Z,23.80
2018-04-11T09:52:53.016Z,21.80
2018-04-11T09:55:20.585Z,20.20
2018-04-11T09:57:48.121Z,21.20
2018-04-11T10:00:15.980Z,21.33
2018-04-11T10:02:43.551Z,22.00
2018-04-11T10:05:11.094Z,21.93
2018-04-11T10:07:38.617Z,23.10
2018-04-11T10:10:06.155Z,23.07
2018-04-11T10:12:33.731Z,22.40
2018-04-11T10:15:01.299Z,21.10
2018-04-11T10:17:28.889Z,21.63
2018-04-11T10:19:56.430Z,23.20
2018-04-11T10:22:23.980Z,21.20
2018-04-11T10:24:51.531Z,20.03
2018-04-11T10:27:19.297Z,22.07
2018-04-11T10:29:46.856Z,24.07
2018-04-11T10:32:14.415Z,24.30
2018-04-11T10:34:42.083Z,24.30
2018-04-11T10:37:09.737Z,23.50
2018-04-11T10:39:37.286Z,24.07
2018-04-11T10:42:04.814Z,24.20
2018-04-11T10:44:33.137Z,25.50
2018-04-11T10:47:00.708Z,24.50
2018-04-11T10:49:28.291Z,23.40
2018-04-11T10:51:55.917Z,24.87
2018-04-11T10:54:23.446Z,25.17
2018-04-11T10:56:51.053Z,26.17
2018-04-11T10:59:18.729Z,22.70
2018-04-11T11:01:46.262Z,23.57
2018-04-11T11:04:13.824Z,23.80
2018-04-11T11:06:41.408Z,26.03
2018-04-11T11:09:09.357Z,22.87
2018-04-11T11:11:36.894Z,23.40
2018-04-11T11:14:04.559Z,22.30
2018-04-11T11:16:36.923Z,26.73
2018-04-11T11:19:04.788Z,28.97
2018-04-11T11:21:32.318Z,28.20
2018-04-11T11:23:59.876Z,27.33
2018-04-11T11:26:27.469Z,28.03
2018-04-11T11:28:55.063Z,27.23
2018-04-11T11:31:22.627Z,27.60
2018-04-11T11:33:50.207Z,26.03
2018-04-11T11:36:17.773Z,25.97
2018-04-11T11:38:46.501Z,26.87
2018-04-11T11:41:14.128Z,26.40
2018-04-11T11:43:41.660Z,25.50
2018-04-11T11:46:09.303Z,25.87
2018-04-11T11:48:36.843Z,26.27
2018-04-11T11:51:04.353Z,27.30
2018-04-11T11:53:31.882Z,24.70
2018-04-11T11:55:59.418Z,25.47
2018-04-11T11:58:26.956Z,26.00
2018-04-11T12:00:54.536Z,25.27
2018-04-11T12:03:22.235Z,25.83
2018-04-11T12:05:49.832Z,25.27
2018-04-11T12:08:17.500Z,27.73
2018-04-11T12:10:45.090Z,26.67
2018-04-11T12:13:12.614Z,25.60
2018-04-11T12:15:40.154Z,25.50
2018-04-11T12:18:07.699Z,26.10
2018-04-11T12:20:35.324Z,25.20
2018-04-11T12:23:02.873Z,23.80
2018-04-11T12:25:30.442Z,25.07
2018-04-11T12:27:58.028Z,25.97
2018-04-11T12:30:25.596Z,27.43
2018-04-11T12:32:53.143Z,30.07
2018-04-11T12:35:20.738Z,27.80
2018-04-11T12:37:48.339Z,25.97
2018-04-11T12:40:16.131Z,28.83
2018-04-11T12:42:43.696Z,27.53
2018-04-11T12:45:11.493Z,28.37
2018-04-11T12:47:39.023Z,28.07
2018-04-11T12:50:06.584Z,27.33
2018-04-11T12:52:34.446Z,28.40
2018-04-11T12:55:02.319Z,28.50
2018-04-11T12:57:29.914Z,28.20
2018-04-11T12:59:57.434Z,30.23
2018-04-11T13:02:25.003Z,32.07
2018-04-11T13:04:52.554Z,31.00
2018-04-11T13:07:20.112Z,29.77
2018-04-11T13:09:47.632Z,28.43
2018-04-11T13:12:15.196Z,32.03
2018-04-11T13:14:42.755Z,32.07
2018-04-11T13:17:10.283Z,31.03
2018-04-11T13:19:38.081Z,30.50
2018-04-11T13:22:05.655Z,33.03
2018-04-11T13:24:33.403Z,32.83
2018-04-11T13:27:11.360Z,31.60
2018-04-11T13:29:39.328Z,35.87
2018-04-11T13:32:06.872Z,33.87
2018-04-11T13:34:34.462Z,33.60
2018-04-11T13:37:02.094Z,33.20
2018-04-11T13:39:29.645Z,34.77
2018-04-11T13:41:57.219Z,35.20
2018-04-11T13:44:24.771Z,33.77
2018-04-11T13:46:52.330Z,33.83
2018-04-11T13:49:19.941Z,36.27
2018-04-11T13:51:47.482Z,35.83
2018-04-11T13:54:15.009Z,34.73
2018-04-11T13:56:42.573Z,35.50
2018-04-11T13:59:10.093Z,35.30
2018-04-11T14:01:37.921Z,35.10
2018-04-11T14:04:05.623Z,36.80
2018-04-11T14:06:33.168Z,36.37
2018-04-11T14:09:00.778Z,34.43
2018-04-11T14:11:28.580Z,37.70
2018-04-11T14:13:56.533Z,36.40
2018-04-11T14:16:24.068Z,37.57
2018-04-11T14:18:51.624Z,36.90
2018-04-11T14:21:19.184Z,38.20
2018-04-11T14:23:46.986Z,37.47
2018-04-11T14:26:14.522Z,37.20
2018-04-11T14:28:42.057Z,35.83
2018-04-11T14:31:09.582Z,37.73
2018-04-11T14:33:37.131Z,36.17
2018-04-11T14:36:04.674Z,36.40
2018-04-11T14:38:32.196Z,36.90
2018-04-11T14:40:59.799Z,37.17
2018-04-11T14:43:27.564Z,36.77
2018-04-11T14:45:58.786Z,36.20
2018-04-11T14:48:26.888Z,36.27
2018-04-11T14:50:54.497Z,34.60
2018-04-11T14:53:22.675Z,34.33
2018-04-11T14:55:50.209Z,33.10
2018-04-11T14:58:17.783Z,35.17
2018-04-11T15:00:45.446Z,38.13
2018-04-11T15:03:13.098Z,36.03
2018-04-11T15:05:40.911Z,35.47
2018-04-11T15:08:08.430Z,35.47
2018-04-11T15:10:36.091Z,34.00
2018-04-11T15:13:03.632Z,35.67
2018-04-11T15:15:31.294Z,35.00
2018-04-11T15:17:59.114Z,33.90
2018-04-11T15:20:26.634Z,33.67
2018-04-11T15:22:54.227Z,33.20
2018-04-11T15:25:25.750Z,30.73
2018-04-11T15:27:53.446Z,32.13
2018-04-11T15:30:21.124Z,33.50
2018-04-11T15:32:48.677Z,34.70
2018-04-11T15:35:16.200Z,33.23
2018-04-11T15:37:43.715Z,33.50
2018-04-11T15:40:11.293Z,33.53
2018-04-11T15:42:38.869Z,34.07
2018-04-11T15:45:07.422Z,33.10
2018-04-11T15:47:35.144Z,34.93
2018-04-11T15:50:02.687Z,35.07
2018-04-11T15:52:30.237Z,34.80
2018-04-11T15:54:57.850Z,40.47
2018-04-11T15:57:27.799Z,37.63
2018-04-11T15:59:55.347Z,37.13
2018-04-11T16:02:23.342Z,35.23
2018-04-11T16:04:51.220Z,35.23
2018-04-11T16:07:18.773Z,37.30
2018-04-11T16:09:46.299Z,36.77
2018-04-11T16:12:13.926Z,37.17
2018-04-11T16:14:41.451Z,33.87
2018-04-11T16:17:09.601Z,36.80
2018-04-11T16:19:37.120Z,34.60
2018-04-11T16:22:04.645Z,35.53
2018-04-11T16:24:33.282Z,38.13
2018-04-11T16:27:01.812Z,35.50
2018-04-11T16:29:29.615Z,35.97
2018-04-11T16:31:57.168Z,34.27
2018-04-11T16:34:24.730Z,35.13
2018-04-11T16:36:52.287Z,34.30
2018-04-11T16:39:19.867Z,36.40
2018-04-11T16:41:47.410Z,35.20
2018-04-11T16:44:14.940Z,32.77
2018-04-11T16:46:42.469Z,32.30
2018-04-11T16:49:10.032Z,34.17
2018-04-11T16:51:37.609Z,35.63
2018-04-11T16:54:05.206Z,34.53
2018-04-11T16:56:32.736Z,35.20
2018-04-11T16:59:00.290Z,33.23
2018-04-11T17:01:27.849Z,31.83
2018-04-11T17:03:55.444Z,30.70
2018-04-11T17:06:23.054Z,34.30
2018-04-11T17:08:51.006Z,33.50
2018-04-11T17:11:18.583Z,33.03
2018-04-11T17:13:46.228Z,32.30
2018-04-11T17:16:14.886Z,31.90
2018-04-11T17:18:43.299Z,32.10
2018-04-11T17:21:23.207Z,33.27
2018-04-11T17:24:02.619Z,30.70
2018-04-11T17:26:42.118Z,31.60
2018-04-11T17:32:16.118Z,31.10
2018-04-11T17:34:43.680Z,33.00
2018-04-11T17:37:11.207Z,31.30
2018-04-11T17:39:38.728Z,33.13
2018-04-11T17:42:06.256Z,31.10
2018-04-11T17:44:33.844Z,32.50
2018-04-11T17:47:01.395Z,33.80
2018-04-11T17:49:28.915Z,33.93
2018-04-11T17:51:56.492Z,32.70
2018-04-11T17:54:24.074Z,35.60
2018-04-11T17:56:51.657Z,35.00
2018-04-11T17:59:19.222Z,34.63
2018-04-11T18:01:46.762Z,34.37
2018-04-11T18:04:14.330Z,32.93
2018-04-11T18:06:41.990Z,34.60
2018-04-11T18:09:09.565Z,35.53
2018-04-11T18:11:37.143Z,35.33
2018-04-11T18:14:04.835Z,36.27
2018-04-11T18:16:32.405Z,37.03
2018-04-11T18:18:59.959Z,36.90
2018-04-11T18:21:27.516Z,37.60
2018-04-11T18:23:55.507Z,36.23
2018-04-11T18:26:23.069Z,36.73
2018-04-11T18:28:50.610Z,36.30
2018-04-11T18:31:18.171Z,37.33
2018-04-11T18:33:45.797Z,35.53
2018-04-11T18:36:13.516Z,36.10
2018-04-11T18:38:41.069Z,37.30
2018-04-11T18:41:08.686Z,35.27
2018-04-11T18:43:36.918Z,39.00
2018-04-11T18:46:04.464Z,37.40
2018-04-11T18:48:32.243Z,35.93
2018-04-11T18:50:59.786Z,38.90
2018-04-11T18:53:27.437Z,36.67
2018-04-11T18:55:54.954Z,37.17
2018-04-11T18:58:22.540Z,35.80
2018-04-11T19:00:50.114Z,36.77
2018-04-11T19:03:17.646Z,38.60
2018-04-11T19:05:45.207Z,36.00
2018-04-11T19:08:12.790Z,38.40
2018-04-11T19:10:40.398Z,37.27
2018-04-11T19:13:08.006Z,38.73
2018-04-11T19:15:35.619Z,38.07
2018-04-11T19:18:03.182Z,38.33
2018-04-11T19:20:30.746Z,38.40
2018-04-11T19:22:59.648Z,36.90
2018-04-11T19:25:27.184Z,36.43
2018-04-11T19:27:54.763Z,36.80
2018-04-11T19:30:22.330Z,36.97
2018-04-11T19:32:49.861Z,38.20
2018-04-11T19:35:17.405Z,37.50
2018-04-11T19:37:44.954Z,38.30
2018-04-11T19:40:12.601Z,38.40
2018-04-11T19:42:40.168Z,37.37
2018-04-11T19:45:08.183Z,37.43
2018-04-11T19:47:35.768Z,36.47
2018-04-11T19:50:03.435Z,37.93
2018-04-11T19:52:30.999Z,39.70
2018-04-11T19:54:58.581Z,39.07
2018-04-11T19:57:26.250Z,37.73
2018-04-11T19:59:54.063Z,37.47
2018-04-11T20:02:21.711Z,38.53
2018-04-11T20:04:49.260Z,39.07
2018-04-11T20:07:16.911Z,37.33
2018-04-11T20:09:44.519Z,40.70
2018-04-11T20:12:12.084Z,37.70
2018-04-11T20:14:39.731Z,38.50
2018-04-11T20:17:07.345Z,38.57
2018-04-11T20:19:35.015Z,38.13
2018-04-11T20:22:02.585Z,38.80
2018-04-11T20:24:30.387Z,38.63
2018-04-11T20:26:57.985Z,37.63
2018-04-11T20:29:25.560Z,38.80
2018-04-11T20:31:53.929Z,39.10
2018-04-11T20:34:21.604Z,37.80
2018-04-11T20:36:49.523Z,38.60
2018-04-11T20:39:18.174Z,36.10
2018-04-11T20:41:45.696Z,38.37
2018-04-11T20:44:13.230Z,39.57
2018-04-11T20:46:40.822Z,35.07
2018-04-11T20:49:08.419Z,40.43
2018-04-11T20:51:36.079Z,39.00
2018-04-11T20:54:03.704Z,39.20
2018-04-11T20:56:31.385Z,38.87
2018-04-11T20:58:58.971Z,37.90
2018-04-11T21:01:27.428Z,37.17
2018-04-11T21:03:55.004Z,36.57
2018-04-11T21:06:22.688Z,38.30
2018-04-11T21:08:50.910Z,38.10
2018-04-11T21:11:18.507Z,38.30
2018-04-11T21:13:46.033Z,39.20
2018-04-11T21:16:13.608Z,37.33
2018-04-11T21:18:41.199Z,36.80
2018-04-11T21:21:08.712Z,39.10
2018-04-11T21:23:36.338Z,37.40
2018-04-11T21:26:03.933Z,37.97
2018-04-11T21:28:31.519Z,37.50
2018-04-11T21:30:59.078Z,36.53
2018-04-11T21:33:26.717Z,37.10
2018-04-11T21:35:54.312Z,38.40
2018-04-11T21:38:21.839Z,37.10
2018-04-11T21:40:48.690Z,38.83
2018-04-11T21:43:16.212Z,38.00
2018-04-11T21:45:43.760Z,38.00
2018-04-11T21:48:11.300Z,37.20
2018-04-11T21:50:38.807Z,37.80
2018-04-11T21:53:06.426Z,36.40
2018-04-11T21:55:34.106Z,34.67
2018-04-11T21:58:01.624Z,36.00
2018-04-11T22:00:29.230Z,33.40
2018-04-11T22:02:56.810Z,35.60
2018-04-11T22:05:24.969Z,33.93
2018-04-11T22:07:52.512Z,35.30
2018-04-11T22:10:20.042Z,33.63
2018-04-11T22:12:47.632Z,35.63
2018-04-11T22:15:15.214Z,34.10
2018-04-11T22:17:42.789Z,34.63
2018-04-11T22:20:10.359Z,35.40
2018-04-11T22:22:37.873Z,33.90
2018-04-11T22:25:05.782Z,34.70
2018-04-11T22:27:33.327Z,32.90
2018-04-11T22:30:00.891Z,35.43
2018-04-11T22:32:28.590Z,35.50
2018-04-11T22:34:56.968Z,35.53
2018-04-11T22:37:24.572Z,35.00
2018-04-11T22:39:52.136Z,36.17
2018-04-11T22:42:19.726Z,35.20
2018-04-11T22:44:47.266Z,35.10
2018-04-11T22:47:14.783Z,33.70
2018-04-11T22:49:42.357Z,33.90
2018-04-11T22:52:09.892Z,33.53
2018-04-11T22:54:37.456Z,33.50
2018-04-11T22:57:05.619Z,32.40
2018-04-11T22:59:33.167Z,32.70
2018-04-11T23:02:00.812Z,32.73
2018-04-11T23:04:28.341Z,32.37
2018-04-11T23:06:58.082Z,32.80
2018-04-11T23:09:25.634Z,33.00
2018-04-11T23:11:53.161Z,32.20
2018-04-11T23:14:20.854Z,32.70
2018-04-11T23:16:48.370Z,32.77
2018-04-11T23:19:16.204Z,32.63
2018-04-11T23:21:44.071Z,33.63
2018-04-11T23:24:11.623Z,32.60
2018-04-11T23:26:39.167Z,32.03
2018-04-11T23:29:06.697Z,33.00
2018-04-11T23:31:34.251Z,31.30
2018-04-11T23:34:02.066Z,31.20
2018-04-11T23:36:29.851Z,31.57
2018-04-11T23:38:57.409Z,30.87
2018-04-11T23:41:24.996Z,30.53
2018-04-11T23:43:52.536Z,30.13
2018-04-11T23:46:20.059Z,30.83
2018-04-11T23:48:47.626Z,31.70
2018-04-11T23:51:15.174Z,30.57
2018-04-11T23:53:42.698Z,31.37
2018-04-11T23:56:10.268Z,31.87
2018-04-11T23:58:37.864Z,32.83
